Time;durP1;ratioP1;P1;durP2;ratioP2;P2;SDS_P1;SDS_P2;PMS_P1;PMS_P2;Temp;Humidity;BMP_temperature;BMP_pressure;BME280_temperature;BME280_humidity;BME280_pressure;Samples;Min_cycle;Max_cycle;Signal;HPM_P1;HPM_P2
2023/08/31 00:01:22;;;;;;;2.55;0.80;;;18.80;80.20;;;;;;4167569;28;20055;-45
2023/08/31 00:04:07;;;;;;;4.07;1.13;;;18.80;80.50;;;;;;4154016;28;20055;-45
2023/08/31 00:06:58;;;;;;;1.92;0.93;;;18.80;80.20;;;;;;4156797;28;20069;-46
2023/08/31 00:09:41;;;;;;;1.67;1.15;;;18.80;80.30;;;;;;4168095;28;20051;-45
2023/08/31 00:12:24;;;;;;;2.72;0.82;;;18.80;81.20;;;;;;4146396;28;20059;-45
2023/08/31 00:15:14;;;;;;;2.85;1.33;;;18.80;80.20;;;;;;4182203;28;20510;-46
2023/08/31 00:18:03;;;;;;;2.25;1.33;;;18.70;80.20;;;;;;4135909;28;20050;-57
2023/08/31 00:20:45;;;;;;;2.35;1.20;;;18.70;80.00;;;;;;4179710;28;20062;-56
2023/08/31 00:23:27;;;;;;;1.30;1.20;;;18.70;80.00;;;;;;4157425;28;20043;-56
2023/08/31 00:26:19;;;;;;;2.38;1.08;;;18.70;79.90;;;;;;4151661;28;20055;-57
2023/08/31 00:29:05;;;;;;;1.55;1.45;;;18.70;80.00;;;;;;4125504;28;20044;-57
2023/08/31 00:31:51;;;;;;;1.92;1.40;;;18.70;80.20;;;;;;4140994;28;20416;-56
2023/08/31 00:34:59;;;;;;;1.38;1.15;;;18.70;80.30;;;;;;4174755;28;20545;-57
2023/08/31 00:37:58;;;;;;;1.40;1.00;;;18.70;80.40;;;;;;4153588;28;20199;-53
2023/08/31 00:40:54;;;;;;;3.78;1.20;;;18.70;80.30;;;;;;4153060;28;20140;-53
2023/08/31 00:43:52;;;;;;;1.35;1.25;;;18.70;80.00;;;;;;4122834;28;20059;-56
2023/08/31 00:46:36;;;;;;;2.75;1.30;;;18.70;80.30;;;;;;4178148;28;20050;-54
2023/08/31 00:49:32;;;;;;;2.25;1.40;;;18.70;80.30;;;;;;4124201;28;20442;-54
2023/08/31 00:52:27;;;;;;;2.40;1.20;;;18.70;80.30;;;;;;4117092;28;20060;-54
2023/08/31 00:55:12;;;;;;;2.88;1.95;;;18.70;80.30;;;;;;4105922;28;20052;-56
2023/08/31 00:58:16;;;;;;;1.55;1.45;;;18.70;80.30;;;;;;4126780;28;20105;-53
2023/08/31 01:01:14;;;;;;;1.88;1.40;;;18.70;80.30;;;;;;4137696;28;20056;-53
2023/08/31 01:04:07;;;;;;;4.55;1.70;;;18.70;80.40;;;;;;4169234;28;20067;-53
2023/08/31 01:07:12;;;;;;;4.50;1.70;;;18.70;80.40;;;;;;4162615;28;20067;-53
2023/08/31 01:13:38;;;;;;;5.45;1.73;;;18.70;80.20;;;;;;4152737;28;20055;-56
2023/08/31 01:16:29;;;;;;;6.18;1.88;;;18.60;80.30;;;;;;4155076;28;20075;-51
2023/08/31 01:19:46;;;;;;;2.72;1.00;;;18.60;80.30;;;;;;4129559;28;20064;-54
2023/08/31 01:22:41;;;;;;;3.80;1.05;;;18.60;80.00;;;;;;4168203;28;20070;-57
2023/08/31 01:25:27;;;;;;;1.52;1.10;;;18.60;80.50;;;;;;4125366;28;20494;-55
2023/08/31 01:28:19;;;;;;;2.58;1.20;;;18.60;80.30;;;;;;4144038;28;20050;-56
2023/08/31 01:31:15;;;;;;;0.90;0.90;;;18.60;80.20;;;;;;4153103;28;20054;-56
2023/08/31 01:34:16;;;;;;;2.85;0.90;;;18.60;80.30;;;;;;4164727;28;20075;-54
2023/08/31 01:37:04;;;;;;;1.05;0.80;;;18.60;81.40;;;;;;4126619;28;20409;-57
2023/08/31 01:40:00;;;;;;;2.15;1.02;;;18.50;80.50;;;;;;4128146;28;20127;-56
2023/08/31 01:42:54;;;;;;;1.45;0.70;;;18.50;80.40;;;;;;4093564;28;20208;-58
2023/08/31 01:45:38;;;;;;;;;;;18.50;80.30;;;;;;4151747;28;20076;-56
2023/08/31 01:48:27;;;;;;;1.08;0.90;;;18.50;80.40;;;;;;4088759;28;19932;-55
2023/08/31 01:51:15;;;;;;;2.15;0.60;;;18.50;80.90;;;;;;4126617;28;20128;-54
2023/08/31 01:53:59;;;;;;;3.90;1.13;;;18.50;80.60;;;;;;4145197;28;20068;-55
2023/08/31 01:56:53;;;;;;;1.65;0.88;;;18.50;80.40;;;;;;4161565;28;20059;-56
2023/08/31 01:59:43;;;;;;;1.55;0.90;;;18.50;80.30;;;;;;4126158;28;20059;-56
2023/08/31 02:02:41;;;;;;;1.23;0.77;;;18.50;80.10;;;;;;4151218;28;20051;-57
2023/08/31 02:05:26;;;;;;;0.80;0.70;;;18.50;80.40;;;;;;4172007;28;20089;-45
2023/08/31 02:08:07;;;;;;;2.38;1.17;;;18.50;80.20;;;;;;4191477;28;20048;-44
2023/08/31 02:10:48;;;;;;;2.03;1.35;;;18.50;80.10;;;;;;4186463;28;20093;-48
2023/08/31 02:13:36;;;;;;;3.25;1.30;;;18.50;80.00;;;;;;4186378;28;20162;-47
2023/08/31 02:16:18;;;;;;;5.03;1.45;;;18.50;80.00;;;;;;4186668;28;20514;-45
2023/08/31 02:19:00;;;;;;;1.60;1.30;;;18.50;80.00;;;;;;4187289;28;20102;-50
2023/08/31 02:21:41;;;;;;;4.43;1.25;;;18.50;79.80;;;;;;4187662;28;20179;-48
2023/08/31 02:24:21;;;;;;;2.65;0.68;;;18.40;79.60;;;;;;4185197;28;20129;-46
2023/08/31 02:27:05;;;;;;;4.47;1.08;;;18.40;79.60;;;;;;4181284;28;20122;-44
2023/08/31 02:29:47;;;;;;;3.95;1.05;;;18.40;79.50;;;;;;4170973;28;20048;-42
2023/08/31 02:32:29;;;;;;;2.05;1.10;;;18.40;79.60;;;;;;4185876;28;20051;-42
2023/08/31 02:35:11;;;;;;;2.53;0.95;;;18.40;79.60;;;;;;4186527;28;20066;-43
2023/08/31 02:37:52;;;;;;;;;;;18.40;79.60;;;;;;4187867;28;20059;-42
2023/08/31 02:40:33;;;;;;;7.80;0.90;;;18.40;79.60;;;;;;4186170;28;19931;-43
2023/08/31 02:43:14;;;;;;;1.73;1.05;;;18.40;80.30;;;;;;4185081;28;20079;-43
2023/08/31 02:46:01;;;;;;;0.68;0.65;;;18.40;80.00;;;;;;4185937;28;20055;-47
2023/08/31 02:48:43;;;;;;;1.10;0.90;;;18.40;79.70;;;;;;4187131;28;20174;-43
2023/08/31 02:51:24;;;;;;;2.70;1.05;;;18.40;79.60;;;;;;4187016;28;20056;-45
2023/08/31 02:54:05;;;;;;;2.40;1.17;;;18.40;79.60;;;;;;4169195;28;20130;-44
2023/08/31 02:56:46;;;;;;;1.40;0.70;;;18.40;79.60;;;;;;4169239;28;20056;-44
2023/08/31 02:59:27;;;;;;;3.45;1.27;;;18.40;79.50;;;;;;4181242;28;20060;-47
2023/08/31 03:02:09;;;;;;;3.90;1.02;;;18.40;79.50;;;;;;4169175;28;20512;-44
2023/08/31 03:04:51;;;;;;;1.52;0.90;;;18.40;79.40;;;;;;4197909;28;20384;-44
2023/08/31 03:07:32;;;;;;;2.97;0.88;;;18.40;79.30;;;;;;4187157;28;20700;-47
2023/08/31 03:10:13;;;;;;;1.58;1.05;;;18.40;79.40;;;;;;4185887;28;20094;-44
2023/08/31 03:12:54;;;;;;;3.40;1.05;;;18.30;79.20;;;;;;4180777;28;20122;-45
2023/08/31 03:15:35;;;;;;;0.93;0.73;;;18.30;79.20;;;;;;4180165;28;20172;-45
2023/08/31 03:18:16;;;;;;;3.38;0.93;;;18.30;79.20;;;;;;4170980;28;20599;-48
2023/08/31 03:20:59;;;;;;;1.65;0.90;;;18.30;79.40;;;;;;4177331;28;20048;-45
2023/08/31 03:23:40;;;;;;;1.95;0.93;;;18.30;79.20;;;;;;4169014;28;20094;-44
2023/08/31 03:26:21;;;;;;;3.08;1.00;;;18.30;79.00;;;;;;4171415;28;20056;-45
2023/08/31 03:29:02;;;;;;;2.13;1.10;;;18.30;79.10;;;;;;4172609;28;20455;-45
2023/08/31 03:31:43;;;;;;;1.65;0.80;;;18.30;79.00;;;;;;4185551;28;20423;-44
2023/08/31 03:34:25;;;;;;;3.13;0.90;;;18.30;79.20;;;;;;4200585;28;20051;-48
2023/08/31 03:37:07;;;;;;;2.22;0.93;;;18.30;79.30;;;;;;4189788;28;20392;-43
2023/08/31 03:39:49;;;;;;;5.05;1.30;;;18.30;79.20;;;;;;4177257;28;20498;-45
2023/08/31 03:42:30;;;;;;;3.25;1.23;;;18.30;79.10;;;;;;4188889;28;20122;-44
2023/08/31 03:45:12;;;;;;;3.65;1.27;;;18.20;79.00;;;;;;4188430;28;20190;-44
2023/08/31 03:47:53;;;;;;;3.80;1.17;;;18.20;79.10;;;;;;4189769;28;20058;-46
2023/08/31 03:50:34;;;;;;;1.17;1.08;;;18.20;79.10;;;;;;4188913;28;20057;-44
2023/08/31 03:53:17;;;;;;;1.60;1.20;;;18.20;79.30;;;;;;4172555;28;20595;-48
2023/08/31 03:55:58;;;;;;;5.40;1.25;;;18.20;79.40;;;;;;4172337;28;20059;-46
2023/08/31 03:58:39;;;;;;;2.15;1.10;;;18.20;79.60;;;;;;4170480;28;20052;-47
2023/08/31 04:01:20;;;;;;;3.28;1.40;;;18.20;79.50;;;;;;4175976;28;20055;-46
2023/08/31 04:04:04;;;;;;;2.25;0.98;;;18.20;79.40;;;;;;4188388;28;20407;-46
2023/08/31 04:06:45;;;;;;;2.35;1.15;;;18.20;79.40;;;;;;4189510;28;20047;-47
2023/08/31 04:09:27;;;;;;;1.25;1.15;;;18.20;80.20;;;;;;4189341;28;20055;-49
2023/08/31 04:12:08;;;;;;;4.47;1.30;;;18.20;79.30;;;;;;4183705;28;20059;-47
2023/08/31 04:14:49;;;;;;;3.03;0.73;;;18.10;79.20;;;;;;4189319;28;20466;-48
2023/08/31 04:17:30;;;;;;;4.55;1.70;;;18.10;79.40;;;;;;4187847;28;20055;-48
2023/08/31 04:20:12;;;;;;;3.33;1.45;;;18.10;79.40;;;;;;4176264;28;20175;-48
2023/08/31 04:23:02;;;;;;;2.47;1.50;;;18.10;79.40;;;;;;4187838;28;21527;-46
2023/08/31 04:25:53;;;;;;;1.75;1.48;;;18.10;79.50;;;;;;4189456;28;20055;-46
2023/08/31 04:28:34;;;;;;;1.70;1.42;;;18.10;79.50;;;;;;4187329;28;20052;-45
2023/08/31 04:31:15;;;;;;;3.85;1.60;;;18.10;79.60;;;;;;4188351;28;20395;-47
2023/08/31 04:33:56;;;;;;;2.65;1.83;;;18.10;79.80;;;;;;4188522;28;20129;-49
2023/08/31 04:36:37;;;;;;;2.42;1.70;;;18.10;80.00;;;;;;4189613;28;20081;-45
2023/08/31 04:39:18;;;;;;;3.08;1.60;;;18.10;80.00;;;;;;4189023;28;20498;-45
2023/08/31 04:42:01;;;;;;;2.35;1.88;;;18.10;80.10;;;;;;4189373;28;20078;-46
2023/08/31 04:44:43;;;;;;;4.20;1.80;;;18.10;80.10;;;;;;4189198;28;20055;-49
2023/08/31 04:47:23;;;;;;;4.22;1.60;;;18.10;80.20;;;;;;4188240;28;20150;-48
2023/08/31 04:50:06;;;;;;;2.28;1.40;;;18.10;80.20;;;;;;4186808;28;20051;-45
2023/08/31 04:52:47;;;;;;;3.38;1.67;;;18.10;80.20;;;;;;4185291;28;20257;-43
2023/08/31 04:55:28;;;;;;;3.50;1.40;;;18.10;80.30;;;;;;4173962;28;20504;-44
2023/08/31 04:58:11;;;;;;;4.18;1.73;;;18.10;80.30;;;;;;4179092;28;20423;-43
2023/08/31 05:00:53;;;;;;;2.35;1.50;;;18.10;80.30;;;;;;4188272;28;20198;-47
2023/08/31 05:03:33;;;;;;;2.92;1.42;;;18.00;80.30;;;;;;4188646;28;20055;-49
2023/08/31 05:06:15;;;;;;;1.58;1.42;;;18.10;80.40;;;;;;4189118;28;20059;-49
2023/08/31 05:08:56;;;;;;;1.75;1.65;;;18.10;80.50;;;;;;4188760;28;20815;-43
2023/08/31 05:11:37;;;;;;;3.05;1.45;;;18.00;80.40;;;;;;4187630;28;20059;-45
2023/08/31 05:14:19;;;;;;;2.40;1.52;;;18.00;80.50;;;;;;4188931;28;20059;-45
2023/08/31 05:17:00;;;;;;;2.13;1.73;;;18.00;80.60;;;;;;4187463;28;20074;-43
2023/08/31 05:19:41;;;;;;;3.17;1.73;;;18.00;81.00;;;;;;4188030;28;20125;-43
2023/08/31 05:22:22;;;;;;;2.25;1.70;;;18.10;81.40;;;;;;4171745;28;20055;-43
2023/08/31 05:25:04;;;;;;;2.70;1.85;;;18.10;81.30;;;;;;4170295;28;20507;-43
2023/08/31 05:27:45;;;;;;;1.80;1.70;;;18.10;81.40;;;;;;4179239;28;20060;-42
2023/08/31 05:30:27;;;;;;;3.92;2.20;;;18.20;81.70;;;;;;4188610;28;20051;-43
2023/08/31 05:33:08;;;;;;;3.17;1.80;;;18.10;81.70;;;;;;4187187;28;20051;-43
2023/08/31 05:35:50;;;;;;;;;;;18.10;81.80;;;;;;4186379;28;20051;-44
2023/08/31 05:38:31;;;;;;;2.13;2.00;;;18.20;82.00;;;;;;4188417;28;20390;-43
2023/08/31 05:41:12;;;;;;;2.47;2.28;;;18.10;82.40;;;;;;4187748;28;20044;-42
2023/08/31 05:43:53;;;;;;;4.20;1.73;;;18.20;82.60;;;;;;4169949;28;20511;-43
2023/08/31 05:46:35;;;;;;;5.40;2.45;;;18.20;82.80;;;;;;4183544;28;20055;-43
2023/08/31 05:49:17;;;;;;;2.50;2.28;;;18.20;82.90;;;;;;4186696;28;20415;-42
2023/08/31 05:51:58;;;;;;;2.03;1.92;;;18.20;82.80;;;;;;4188021;28;20142;-44
2023/08/31 05:54:40;;;;;;;2.42;1.98;;;18.20;82.60;;;;;;4185549;28;20048;-46
2023/08/31 05:57:21;;;;;;;6.00;2.63;;;18.10;82.70;;;;;;4187155;28;20640;-47
2023/08/31 06:00:02;;;;;;;2.08;1.98;;;18.10;82.90;;;;;;4186839;28;20684;-46
2023/08/31 06:02:53;;;;;;;2.95;1.73;;;18.10;83.20;;;;;;4187384;28;20071;-46
2023/08/31 06:05:35;;;;;;;3.33;1.90;;;18.20;83.60;;;;;;4187631;28;20411;-47
2023/08/31 06:08:16;;;;;;;3.47;1.75;;;18.10;83.20;;;;;;4186532;28;20059;-50
2023/08/31 06:10:57;;;;;;;4.30;1.63;;;18.10;83.10;;;;;;4187933;28;20101;-45
2023/08/31 06:13:39;;;;;;;1.77;1.60;;;18.10;83.80;;;;;;4187197;28;20344;-47
2023/08/31 06:16:20;;;;;;;3.00;1.58;;;18.10;82.90;;;;;;4186438;28;20102;-46
2023/08/31 06:19:03;;;;;;;2.92;2.05;;;18.10;82.90;;;;;;4188068;28;20043;-45
2023/08/31 06:21:45;;;;;;;3.95;1.90;;;18.10;82.80;;;;;;4171711;28;20052;-49
2023/08/31 06:24:25;;;;;;;3.10;2.00;;;18.10;82.80;;;;;;4179261;28;20055;-47
2023/08/31 06:27:06;;;;;;;4.70;2.00;;;18.10;82.60;;;;;;4169504;28;20168;-45
2023/08/31 06:29:48;;;;;;;1.67;1.40;;;18.10;82.60;;;;;;4169863;28;20055;-45
2023/08/31 06:32:29;;;;;;;1.17;1.08;;;18.10;82.60;;;;;;4184800;28;20511;-49
2023/08/31 06:35:12;;;;;;;3.92;1.20;;;18.20;82.60;;;;;;4186980;28;20075;-45
2023/08/31 06:37:55;;;;;;;2.75;1.30;;;18.20;82.50;;;;;;4185611;28;20090;-46
2023/08/31 06:40:38;;;;;;;2.85;1.35;;;18.20;82.50;;;;;;4187610;28;20087;-46
2023/08/31 06:43:19;;;;;;;2.97;1.20;;;18.20;82.40;;;;;;4187343;28;20145;-45
2023/08/31 06:46:00;;;;;;;2.88;1.30;;;18.20;82.30;;;;;;4186785;28;20052;-45
2023/08/31 06:48:58;;;;;;;1.63;1.08;;;18.30;82.40;;;;;;4186699;28;20118;-48
2023/08/31 06:51:40;;;;;;;3.83;1.17;;;18.30;82.40;;;;;;4185857;28;20082;-48
2023/08/31 06:54:21;;;;;;;2.53;1.25;;;18.20;82.60;;;;;;4170019;28;20295;-45
2023/08/31 06:57:02;;;;;;;2.92;1.20;;;18.30;82.60;;;;;;4176819;28;20059;-45
2023/08/31 06:59:44;;;;;;;;;;;18.30;82.70;;;;;;4159948;28;20061;-49
2023/08/31 07:02:27;;;;;;;3.00;1.40;;;18.40;82.60;;;;;;4170789;28;19944;-47
2023/08/31 07:05:09;;;;;;;2.40;1.10;;;18.40;82.50;;;;;;4170733;28;20133;-44
2023/08/31 07:07:51;;;;;;;;;;;18.40;82.60;;;;;;4174313;28;20921;-49
2023/08/31 07:10:32;;;;;;;3.05;1.02;;;18.40;82.30;;;;;;4183974;28;19931;-44
2023/08/31 07:13:13;;;;;;;3.05;0.80;;;18.40;82.30;;;;;;4186736;28;20059;-46
2023/08/31 07:15:54;;;;;;;1.35;0.95;;;18.40;82.30;;;;;;4186320;28;20047;-48
2023/08/31 07:18:37;;;;;;;1.38;0.75;;;18.40;83.20;;;;;;4186776;28;20051;-49
2023/08/31 07:21:17;;;;;;;3.85;1.05;;;18.40;82.50;;;;;;4185888;28;20114;-48
2023/08/31 07:24:01;;;;;;;4.03;1.40;;;18.40;82.60;;;;;;4186501;28;20502;-43
2023/08/31 07:26:41;;;;;;;3.00;0.90;;;18.40;82.70;;;;;;4186967;28;20502;-44
2023/08/31 07:29:22;;;;;;;2.17;1.25;;;18.40;82.70;;;;;;4185779;28;20169;-43
2023/08/31 07:32:04;;;;;;;1.17;0.80;;;18.40;82.80;;;;;;4187087;28;20051;-44
2023/08/31 07:34:45;;;;;;;;;;;18.40;82.80;;;;;;4179745;28;20044;-45
2023/08/31 07:37:25;;;;;;;2.00;0.50;;;18.50;82.80;;;;;;4185424;28;19971;-44
2023/08/31 07:40:09;;;;;;;3.03;0.70;;;18.50;82.70;;;;;;4186266;28;20063;-44
2023/08/31 07:42:51;;;;;;;1.90;1.02;;;18.40;82.60;;;;;;4173756;28;20047;-44
2023/08/31 07:45:32;;;;;;;2.53;0.90;;;18.50;82.70;;;;;;4187108;28;20055;-48
2023/08/31 07:48:13;;;;;;;4.55;0.70;;;18.50;82.60;;;;;;4186994;28;20067;-44
2023/08/31 07:50:54;;;;;;;3.50;0.77;;;18.50;82.70;;;;;;4186922;28;20182;-45
2023/08/31 07:53:35;;;;;;;4.57;0.80;;;18.60;82.60;;;;;;4186491;28;20046;-49
2023/08/31 07:56:18;;;;;;;2.15;0.90;;;18.60;82.50;;;;;;4186303;28;20064;-44
2023/08/31 07:58:59;;;;;;;3.08;0.60;;;18.60;82.40;;;;;;4186750;28;20399;-47
2023/08/31 08:01:41;;;;;;;1.23;0.65;;;18.60;82.40;;;;;;4186372;28;20711;-43
2023/08/31 08:04:23;;;;;;;2.65;0.95;;;18.70;82.50;;;;;;4186792;28;20056;-44
2023/08/31 08:07:04;;;;;;;4.15;0.60;;;18.70;82.50;;;;;;4185498;28;20051;-46
2023/08/31 08:09:45;;;;;;;2.97;1.00;;;18.70;82.50;;;;;;4186712;28;20505;-47
2023/08/31 08:12:28;;;;;;;1.85;1.00;;;18.80;82.40;;;;;;4187286;28;20094;-44
2023/08/31 08:15:09;;;;;;;1.83;0.70;;;18.80;82.30;;;;;;4187851;28;20067;-45
2023/08/31 08:17:50;;;;;;;1.20;0.50;;;18.80;82.20;;;;;;4173202;28;20464;-48
2023/08/31 08:20:32;;;;;;;1.10;0.80;;;18.80;82.10;;;;;;4182804;28;20051;-44
2023/08/31 08:23:13;;;;;;;3.03;0.75;;;18.90;82.10;;;;;;4172283;28;20056;-44
2023/08/31 08:25:54;;;;;;;1.75;0.73;;;18.90;82.10;;;;;;4166386;28;20416;-42
2023/08/31 08:28:36;;;;;;;1.30;0.90;;;18.90;82.00;;;;;;4171287;28;20052;-43
2023/08/31 08:31:17;;;;;;;3.20;0.68;;;19.00;82.10;;;;;;4177748;28;20056;-41
2023/08/31 08:33:58;;;;;;;1.60;0.47;;;19.00;82.10;;;;;;4189260;28;20456;-42
2023/08/31 08:36:39;;;;;;;1.33;0.40;;;19.00;82.00;;;;;;4189055;28;20056;-45
2023/08/31 08:39:20;;;;;;;1.52;0.65;;;19.10;81.80;;;;;;4188649;28;20051;-46
2023/08/31 08:42:03;;;;;;;2.20;0.73;;;19.10;81.30;;;;;;4189333;28;20214;-46
2023/08/31 08:44:46;;;;;;;1.42;0.68;;;19.10;80.90;;;;;;4189413;28;20072;-46
2023/08/31 08:47:28;;;;;;;4.00;0.80;;;19.20;80.50;;;;;;4189648;28;20048;-45
2023/08/31 08:50:09;;;;;;;;;;;19.10;80.10;;;;;;4189521;28;20376;-43
2023/08/31 08:52:51;;;;;;;;;;;19.20;80.10;;;;;;4173128;28;20054;-44
2023/08/31 08:55:33;;;;;;;2.05;0.45;;;19.20;79.80;;;;;;4172882;28;19928;-44
2023/08/31 08:58:15;;;;;;;1.67;0.73;;;19.20;79.50;;;;;;4185700;28;20071;-43
2023/08/31 09:00:57;;;;;;;0.75;0.50;;;19.20;79.30;;;;;;4188156;28;20619;-42
2023/08/31 09:03:39;;;;;;;3.60;0.60;;;19.20;79.10;;;;;;4198947;28;20051;-43
2023/08/31 09:06:21;;;;;;;4.03;0.60;;;19.20;78.80;;;;;;4177318;28;20186;-43
2023/08/31 09:09:03;;;;;;;1.33;0.40;;;19.20;78.70;;;;;;4184624;28;20048;-44
2023/08/31 09:11:45;;;;;;;2.80;0.52;;;19.20;78.50;;;;;;4175713;28;20090;-43
2023/08/31 09:14:26;;;;;;;0.93;0.45;;;19.30;78.40;;;;;;4183850;28;20620;-46
2023/08/31 09:17:09;;;;;;;0.98;0.50;;;19.30;78.60;;;;;;4172186;28;20183;-53
2023/08/31 09:20:00;;;;;;;1.55;0.32;;;19.30;78.70;;;;;;4172292;28;20063;-51
2023/08/31 09:22:44;;;;;;;3.60;0.52;;;19.30;78.40;;;;;;4170289;28;20148;-42
2023/08/31 09:25:26;;;;;;;2.55;0.60;;;19.30;78.00;;;;;;4171427;28;20122;-43
2023/08/31 09:28:07;;;;;;;1.05;0.43;;;19.40;77.90;;;;;;4182860;28;20564;-42
2023/08/31 09:30:49;;;;;;;;;;;19.40;77.70;;;;;;4187687;28;20564;-43
2023/08/31 09:33:32;;;;;;;4.28;0.63;;;19.40;77.60;;;;;;4166956;28;19929;-43
2023/08/31 09:36:16;;;;;;;4.60;0.90;;;19.40;77.40;;;;;;4166345;28;20400;-45
2023/08/31 09:38:59;;;;;;;4.43;1.17;;;19.40;77.30;;;;;;4170390;28;20044;-42
2023/08/31 09:41:54;;;;;;;7.28;1.20;;;19.40;77.60;;;;;;4174349;28;20129;-43
2023/08/31 09:44:40;;;;;;;1.90;0.80;;;19.30;78.30;;;;;;4187579;28;20051;-47
2023/08/31 09:47:21;;;;;;;2.05;0.75;;;19.30;78.40;;;;;;4188737;28;20145;-44
2023/08/31 09:50:04;;;;;;;2.63;0.88;;;19.30;78.70;;;;;;4187646;28;20055;-44
2023/08/31 09:52:47;;;;;;;2.00;0.50;;;19.30;79.00;;;;;;4187576;28;20059;-44
2023/08/31 09:55:30;;;;;;;2.63;0.90;;;19.30;79.30;;;;;;4186537;28;20052;-46
2023/08/31 09:58:11;;;;;;;1.55;0.70;;;19.30;80.50;;;;;;4184993;28;20055;-44
2023/08/31 10:00:56;;;;;;;3.13;0.65;;;19.30;80.00;;;;;;4187988;28;20197;-45
2023/08/31 10:03:38;;;;;;;1.38;0.75;;;19.30;80.40;;;;;;4187685;28;20055;-43
2023/08/31 10:06:22;;;;;;;3.50;0.70;;;19.30;80.60;;;;;;4182233;28;20055;-43
2023/08/31 10:09:05;;;;;;;2.45;0.73;;;19.30;80.70;;;;;;4171652;28;20048;-43
2023/08/31 10:11:46;;;;;;;1.15;0.73;;;19.40;81.10;;;;;;4187538;28;20051;-41
2023/08/31 10:14:29;;;;;;;2.88;0.80;;;19.40;81.10;;;;;;4186417;28;20487;-43
2023/08/31 10:17:10;;;;;;;5.03;1.85;;;19.40;81.10;;;;;;4187772;28;20056;-40
2023/08/31 10:19:52;;;;;;;4.20;2.25;;;19.40;81.10;;;;;;4187368;28;20059;-46
2023/08/31 10:22:35;;;;;;;4.70;2.50;;;19.40;81.10;;;;;;4171240;28;20105;-44
2023/08/31 10:25:16;;;;;;;1.60;1.55;;;19.40;81.30;;;;;;4184414;28;20059;-44
2023/08/31 10:27:57;;;;;;;13.52;6.38;;;19.40;81.60;;;;;;4187607;28;20067;-45
2023/08/31 10:30:38;;;;;;;19.75;8.30;;;19.40;81.80;;;;;;4187368;28;20059;-45
2023/08/31 10:33:24;;;;;;;2.85;1.65;;;19.40;81.90;;;;;;4187380;28;20166;-48
2023/08/31 10:36:10;;;;;;;9.32;4.32;;;19.40;82.00;;;;;;4176191;28;20145;-48
2023/08/31 10:39:06;;;;;;;3.47;1.75;;;19.50;82.00;;;;;;4186689;28;20120;-43
2023/08/31 10:41:53;;;;;;;3.13;0.70;;;19.40;81.80;;;;;;4185686;28;20047;-43
2023/08/31 10:44:35;;;;;;;2.22;1.65;;;19.50;81.40;;;;;;4187414;28;20486;-44
2023/08/31 10:47:16;;;;;;;4.43;2.28;;;19.40;81.00;;;;;;4186822;28;20093;-45
2023/08/31 10:50:17;;;;;;;7.88;2.45;;;19.40;80.80;;;;;;4186020;28;20115;-44
2023/08/31 10:53:09;;;;;;;6.15;2.22;;;19.50;80.70;;;;;;4185705;28;20174;-41
2023/08/31 10:55:55;;;;;;;1.92;0.80;;;19.50;80.40;;;;;;4197022;28;20064;-41
2023/08/31 10:58:36;;;;;;;3.10;1.20;;;19.60;80.20;;;;;;4185574;28;20084;-42
2023/08/31 11:01:53;;;;;;;3.03;1.50;;;19.60;80.00;;;;;;4186626;28;20606;-43
2023/08/31 11:04:54;;;;;;;1.45;0.70;;;19.60;79.90;;;;;;4186339;28;20052;-46
2023/08/31 11:07:36;;;;;;;;;;;19.70;79.60;;;;;;4170740;28;20098;-43
2023/08/31 11:10:19;;;;;;;5.80;2.03;;;19.70;79.60;;;;;;4170260;28;19999;-40
2023/08/31 11:13:02;;;;;;;4.80;1.65;;;19.70;79.50;;;;;;4165910;28;20183;-40
2023/08/31 11:15:47;;;;;;;2.22;1.15;;;19.80;79.60;;;;;;4171029;28;20063;-40
2023/08/31 11:18:27;;;;;;;2.22;1.27;;;19.80;79.30;;;;;;4176662;28;20047;-40
2023/08/31 11:21:09;;;;;;;;;;;19.80;79.00;;;;;;4171096;28;20048;-40
2023/08/31 11:23:50;;;;;;;2.60;1.02;;;19.90;78.90;;;;;;4170593;28;19931;-40
2023/08/31 11:26:32;;;;;;;;;;;19.90;78.90;;;;;;4171010;28;20118;-40
2023/08/31 11:29:15;;;;;;;3.03;1.23;;;19.90;78.90;;;;;;4185305;28;20283;-40
2023/08/31 11:32:00;;;;;;;2.35;1.15;;;19.90;79.00;;;;;;4186855;28;20581;-40
2023/08/31 11:34:42;;;;;;;6.18;3.03;;;19.90;79.00;;;;;;4186911;28;20392;-40
2023/08/31 11:37:24;;;;;;;7.35;2.05;;;19.90;79.60;;;;;;4185461;28;20399;-41
2023/08/31 11:40:07;;;;;;;7.28;2.92;;;20.00;80.30;;;;;;4170343;28;20126;-41
2023/08/31 11:42:49;;;;;;;5.03;1.98;;;20.00;81.20;;;;;;4170846;28;20102;-40
2023/08/31 11:45:32;;;;;;;5.75;3.42;;;20.00;81.40;;;;;;4170559;28;20102;-40
2023/08/31 11:48:13;;;;;;;7.32;2.45;;;20.00;81.80;;;;;;4180189;28;20067;-40
2023/08/31 11:50:54;;;;;;;;;;;20.10;82.00;;;;;;4190581;28;20060;-40
2023/08/31 11:53:35;;;;;;;2.60;0.90;;;20.10;81.90;;;;;;4186566;28;19927;-43
2023/08/31 11:56:16;;;;;;;5.28;2.35;;;20.10;82.00;;;;;;4189825;28;20077;-48
2023/08/31 11:58:57;;;;;;;4.40;1.33;;;20.10;81.80;;;;;;4189089;28;20186;-53
2023/08/31 12:01:50;;;;;;;3.92;1.17;;;20.10;81.60;;;;;;4189939;28;20376;-42
2023/08/31 12:04:32;;;;;;;2.80;1.15;;;20.10;81.40;;;;;;4189169;28;20071;-42
2023/08/31 12:07:17;;;;;;;2.47;1.25;;;20.10;81.10;;;;;;4189122;28;20082;-43
2023/08/31 12:10:03;;;;;;;2.75;1.23;;;20.10;79.80;;;;;;4189761;28;20051;-43
2023/08/31 12:12:45;;;;;;;3.95;1.23;;;20.10;79.30;;;;;;4189898;28;20052;-43
2023/08/31 12:15:31;;;;;;;2.10;0.85;;;20.00;79.70;;;;;;4189019;28;20113;-43
2023/08/31 12:18:15;;;;;;;3.53;1.05;;;20.00;79.30;;;;;;4188939;28;20507;-43
2023/08/31 12:20:57;;;;;;;1.25;0.60;;;19.90;80.00;;;;;;4188191;28;20072;-39
2023/08/31 12:23:39;;;;;;;0.88;0.60;;;19.90;80.20;;;;;;4172584;28;20095;-43
2023/08/31 12:26:21;;;;;;;0.90;0.52;;;19.90;80.00;;;;;;4178441;28;20048;-42
2023/08/31 12:29:02;;;;;;;1.88;0.90;;;19.90;79.70;;;;;;4189139;28;20075;-44
2023/08/31 12:31:45;;;;;;;2.75;0.85;;;19.90;79.60;;;;;;4173172;28;20511;-43
2023/08/31 12:34:28;;;;;;;1.00;0.90;;;19.80;79.60;;;;;;4189341;28;20052;-45
2023/08/31 12:37:08;;;;;;;2.78;1.23;;;19.80;79.60;;;;;;4188780;28;20059;-43
2023/08/31 12:39:49;;;;;;;1.65;0.95;;;19.80;79.60;;;;;;4189434;28;20498;-44
2023/08/31 12:42:30;;;;;;;4.05;0.68;;;19.80;79.80;;;;;;4187845;28;20249;-46
2023/08/31 12:45:11;;;;;;;1.10;0.85;;;19.80;80.00;;;;;;4187838;28;20407;-47
2023/08/31 12:47:52;;;;;;;3.13;1.08;;;19.80;80.40;;;;;;4171738;28;20117;-44
2023/08/31 12:50:35;;;;;;;0.80;0.70;;;19.70;80.70;;;;;;4172975;28;20048;-45
2023/08/31 12:53:16;;;;;;;1.95;1.05;;;19.80;81.10;;;;;;4172450;28;20113;-43
2023/08/31 12:55:57;;;;;;;2.38;1.10;;;19.70;81.00;;;;;;4178227;28;20101;-44
2023/08/31 12:58:39;;;;;;;1.77;0.93;;;19.70;80.90;;;;;;4187776;28;20162;-44
2023/08/31 13:01:22;;;;;;;0.98;0.90;;;19.70;80.90;;;;;;4189432;28;20055;-47
2023/08/31 13:04:05;;;;;;;1.52;0.95;;;19.70;80.90;;;;;;4189230;28;20048;-43
2023/08/31 13:06:48;;;;;;;1.20;0.98;;;19.70;80.90;;;;;;4189061;28;20734;-47
2023/08/31 13:09:29;;;;;;;1.65;1.08;;;19.70;81.80;;;;;;4187954;28;20418;-43
2023/08/31 13:12:10;;;;;;;1.40;1.00;;;19.70;81.10;;;;;;4185414;28;20059;-43
2023/08/31 13:14:50;;;;;;;2.63;1.30;;;19.70;81.20;;;;;;4188260;28;20458;-44
2023/08/31 13:17:32;;;;;;;1.17;0.93;;;19.70;81.30;;;;;;4188070;28;20117;-44
2023/08/31 13:20:13;;;;;;;4.25;1.00;;;19.70;81.60;;;;;;4189308;28;20059;-42
2023/08/31 13:22:55;;;;;;;1.67;1.15;;;19.70;81.90;;;;;;4187420;28;20399;-46
2023/08/31 13:25:37;;;;;;;2.72;1.10;;;19.70;82.40;;;;;;4170705;28;20062;-42
2023/08/31 13:28:17;;;;;;;2.53;1.00;;;19.70;82.50;;;;;;4172429;28;20126;-44
2023/08/31 13:31:00;;;;;;;4.10;1.17;;;19.60;82.60;;;;;;4171796;28;20396;-44
2023/08/31 13:33:42;;;;;;;4.13;1.05;;;19.60;82.80;;;;;;4188228;28;20175;-45
2023/08/31 13:36:23;;;;;;;1.45;0.82;;;19.70;83.10;;;;;;4188294;28;20491;-44
2023/08/31 13:39:07;;;;;;;3.78;0.98;;;19.70;83.50;;;;;;4172692;28;20404;-44
2023/08/31 13:41:48;;;;;;;2.55;1.05;;;19.70;83.80;;;;;;4188097;28;20070;-43
2023/08/31 13:44:29;;;;;;;1.92;0.98;;;19.70;83.80;;;;;;4174291;28;20051;-44
2023/08/31 13:47:10;;;;;;;2.53;0.90;;;19.70;83.80;;;;;;4188112;28;20046;-43
2023/08/31 13:49:51;;;;;;;2.28;1.10;;;19.70;83.70;;;;;;4187779;28;20051;-45
2023/08/31 13:52:32;;;;;;;1.15;1.00;;;19.80;83.70;;;;;;4187008;28;20403;-47
2023/08/31 13:55:14;;;;;;;1.35;1.10;;;19.80;83.80;;;;;;4187581;28;20063;-44
2023/08/31 13:57:56;;;;;;;5.38;1.20;;;19.80;83.90;;;;;;4188373;28;20403;-43
2023/08/31 14:00:37;;;;;;;;;;;19.80;83.70;;;;;;4186864;28;20407;-43
2023/08/31 14:03:18;;;;;;;3.38;1.10;;;19.80;83.00;;;;;;4187542;28;19931;-44
2023/08/31 14:05:59;;;;;;;3.47;1.17;;;19.80;82.40;;;;;;4188096;28;20059;-45
2023/08/31 14:08:41;;;;;;;2.05;0.90;;;19.80;82.00;;;;;;4187556;28;20043;-44
2023/08/31 14:11:23;;;;;;;3.88;1.08;;;19.80;81.50;;;;;;4180829;28;20056;-44
2023/08/31 14:14:09;;;;;;;3.75;1.00;;;19.80;81.40;;;;;;4171248;28;20063;-45
2023/08/31 14:16:49;;;;;;;3.58;1.20;;;19.80;81.60;;;;;;4171201;28;20106;-43
2023/08/31 14:19:31;;;;;;;2.63;0.90;;;19.80;81.50;;;;;;4171220;28;20052;-44